sensor_id;sensor_type;location;lat;lon;timestamp;pressure;altitude;pressure_sealevel;temperature;humidity
21728;BME280;11026;50.560;17.852;2022-08-01T00:01:28;99326.94;;;13.61;100.00
21728;BME280;11026;50.560;17.852;2022-08-01T00:04:09;99326.00;;;13.62;100.00
21728;BME280;11026;50.560;17.852;2022-08-01T00:06:39;99319.94;;;13.60;100.00
21728;BME280;11026;50.560;17.852;2022-08-01T00:09:06;99310.44;;;13.56;100.00
21728;BME280;11026;50.560;17.852;2022-08-01T00:11:41;99317.44;;;13.57;100.00
21728;BME280;11026;50.560;17.852;2022-08-01T00:14:11;99306.44;;;13.48;100.00
21728;BME280;11026;50.560;17.852;2022-08-01T00:17:01;99319.13;;;13.43;100.00
21728;BME280;11026;50.560;17.852;2022-08-01T00:19:49;99318.97;;;13.46;100.00
21728;BME280;11026;50.560;17.852;2022-08-01T00:24:56;99311.91;;;13.31;100.00
21728;BME280;11026;50.560;17.852;2022-08-01T00:27:40;99306.06;;;13.24;100.00
21728;BME280;11026;50.560;17.852;2022-08-01T00:30:08;99314.75;;;12.96;100.00
21728;BME280;11026;50.560;17.852;2022-08-01T00:32:42;99313.06;;;12.79;100.00
21728;BME280;11026;50.560;17.852;2022-08-01T00:35:29;99310.69;;;12.75;100.00
21728;BME280;11026;50.560;17.852;2022-08-01T00:38:23;99321.09;;;12.46;100.00
21728;BME280;11026;50.560;17.852;2022-08-01T00:40:53;99317.81;;;12.25;100.00
21728;BME280;11026;50.560;17.852;2022-08-01T00:43:23;99314.41;;;12.55;100.00
21728;BME280;11026;50.560;17.852;2022-08-01T00:46:01;99319.06;;;12.51;100.00
21728;BME280;11026;50.560;17.852;2022-08-01T00:48:37;99316.47;;;12.34;100.00
21728;BME280;11026;50.560;17.852;2022-08-01T00:51:07;99318.94;;;12.21;100.00
21728;BME280;11026;50.560;17.852;2022-08-01T00:53:44;99323.25;;;12.06;100.00
21728;BME280;11026;50.560;17.852;2022-08-01T00:56:27;99308.53;;;12.01;100.00
21728;BME280;11026;50.560;17.852;2022-08-01T00:59:03;99318.28;;;12.00;100.00
21728;BME280;11026;50.560;17.852;2022-08-01T01:01:36;99310.63;;;12.12;100.00
21728;BME280;11026;50.560;17.852;2022-08-01T01:04:14;99313.31;;;12.27;100.00
21728;BME280;11026;50.560;17.852;2022-08-01T01:10:03;99319.31;;;11.98;100.00
21728;BME280;11026;50.560;17.852;2022-08-01T01:13:02;99316.91;;;11.93;100.00
21728;BME280;11026;50.560;17.852;2022-08-01T01:18:46;99332.09;;;11.90;100.00
21728;BME280;11026;50.560;17.852;2022-08-01T01:30:51;99315.41;;;12.21;100.00
21728;BME280;11026;50.560;17.852;2022-08-01T01:33:24;99316.97;;;12.25;100.00
21728;BME280;11026;50.560;17.852;2022-08-01T01:35:56;99315.41;;;12.21;100.00
21728;BME280;11026;50.560;17.852;2022-08-01T01:38:42;99307.56;;;12.35;100.00
21728;BME280;11026;50.560;17.852;2022-08-01T01:41:15;99300.69;;;12.31;100.00
21728;BME280;11026;50.560;17.852;2022-08-01T01:43:46;99308.59;;;12.33;100.00
21728;BME280;11026;50.560;17.852;2022-08-01T01:46:19;99301.56;;;12.16;100.00
21728;BME280;11026;50.560;17.852;2022-08-01T01:48:58;99305.97;;;12.15;100.00
21728;BME280;11026;50.560;17.852;2022-08-01T01:51:28;99300.69;;;12.31;100.00
21728;BME280;11026;50.560;17.852;2022-08-01T01:54:16;99306.81;;;12.33;100.00
21728;BME280;11026;50.560;17.852;2022-08-01T01:56:47;99303.34;;;12.31;100.00
21728;BME280;11026;50.560;17.852;2022-08-01T01:59:40;99298.84;;;12.33;100.00
21728;BME280;11026;50.560;17.852;2022-08-01T02:02:16;99298.84;;;12.33;100.00
21728;BME280;11026;50.560;17.852;2022-08-01T02:04:53;99305.84;;;12.34;100.00
21728;BME280;11026;50.560;17.852;2022-08-01T02:07:24;99288.38;;;12.30;100.00
21728;BME280;11026;50.560;17.852;2022-08-01T02:10:00;99302.53;;;12.46;100.00
21728;BME280;11026;50.560;17.852;2022-08-01T02:12:35;99289.94;;;12.34;100.00
21728;BME280;11026;50.560;17.852;2022-08-01T02:15:05;99298.25;;;12.44;100.00
21728;BME280;11026;50.560;17.852;2022-08-01T02:17:33;99296.28;;;12.47;100.00
21728;BME280;11026;50.560;17.852;2022-08-01T02:20:04;99294.97;;;12.39;100.00
21728;BME280;11026;50.560;17.852;2022-08-01T02:22:42;99300.53;;;12.34;100.00
21728;BME280;11026;50.560;17.852;2022-08-01T02:25:15;99297.63;;;12.23;100.00
21728;BME280;11026;50.560;17.852;2022-08-01T02:27:57;99303.31;;;11.99;100.00
21728;BME280;11026;50.560;17.852;2022-08-01T02:30:32;99296.38;;;11.97;100.00
21728;BME280;11026;50.560;17.852;2022-08-01T02:33:21;99296.69;;;12.24;100.00
21728;BME280;11026;50.560;17.852;2022-08-01T02:35:54;99283.59;;;12.21;100.00
21728;BME280;11026;50.560;17.852;2022-08-01T02:39:03;99293.38;;;12.36;100.00
21728;BME280;11026;50.560;17.852;2022-08-01T02:41:41;99288.97;;;12.19;100.00
21728;BME280;11026;50.560;17.852;2022-08-01T02:44:11;99285.47;;;12.19;100.00
21728;BME280;11026;50.560;17.852;2022-08-01T02:47:03;99286.75;;;12.12;100.00
21728;BME280;11026;50.560;17.852;2022-08-01T02:50:07;99295.56;;;12.12;100.00
21728;BME280;11026;50.560;17.852;2022-08-01T02:52:50;99291.97;;;11.80;100.00
21728;BME280;11026;50.560;17.852;2022-08-01T02:55:45;99296.56;;;12.10;100.00
21728;BME280;11026;50.560;17.852;2022-08-01T02:58:20;99294.88;;;12.09;100.00
21728;BME280;11026;50.560;17.852;2022-08-01T03:01:07;99299.84;;;12.15;100.00
21728;BME280;11026;50.560;17.852;2022-08-01T03:03:37;99298.22;;;12.12;100.00
21728;BME280;11026;50.560;17.852;2022-08-01T03:06:11;99298.91;;;12.16;100.00
21728;BME280;11026;50.560;17.852;2022-08-01T03:12:09;99296.94;;;12.19;100.00
21728;BME280;11026;50.560;17.852;2022-08-01T03:14:43;99300.78;;;12.14;100.00
21728;BME280;11026;50.560;17.852;2022-08-01T03:17:20;99298.25;;;12.28;100.00
21728;BME280;11026;50.560;17.852;2022-08-01T03:19:53;99297.28;;;12.29;100.00
21728;BME280;11026;50.560;17.852;2022-08-01T03:22:25;99294.22;;;12.37;100.00
21728;BME280;11026;50.560;17.852;2022-08-01T03:24:56;99289.78;;;12.37;100.00
21728;BME280;11026;50.560;17.852;2022-08-01T03:27:37;99297.16;;;12.48;100.00
21728;BME280;11026;50.560;17.852;2022-08-01T03:30:07;99301.06;;;12.57;100.00
21728;BME280;11026;50.560;17.852;2022-08-01T03:32:36;99297.16;;;12.64;100.00
21728;BME280;11026;50.560;17.852;2022-08-01T03:35:05;99300.91;;;12.60;100.00
21728;BME280;11026;50.560;17.852;2022-08-01T03:37:38;99298.00;;;12.64;100.00
21728;BME280;11026;50.560;17.852;2022-08-01T03:40:47;99296.28;;;12.79;100.00
21728;BME280;11026;50.560;17.852;2022-08-01T03:43:33;99295.91;;;12.85;100.00
21728;BME280;11026;50.560;17.852;2022-08-01T03:46:09;99299.19;;;12.74;100.00
21728;BME280;11026;50.560;17.852;2022-08-01T03:48:41;99302.72;;;12.75;100.00
21728;BME280;11026;50.560;17.852;2022-08-01T03:51:18;99296.78;;;12.70;100.00
21728;BME280;11026;50.560;17.852;2022-08-01T03:53:50;99296.28;;;12.63;100.00
21728;BME280;11026;50.560;17.852;2022-08-01T03:56:22;99301.50;;;12.65;100.00
21728;BME280;11026;50.560;17.852;2022-08-01T03:58:50;99298.16;;;12.77;100.00
21728;BME280;11026;50.560;17.852;2022-08-01T04:01:18;99298.69;;;12.84;100.00
21728;BME280;11026;50.560;17.852;2022-08-01T04:04:06;99302.94;;;12.86;100.00
21728;BME280;11026;50.560;17.852;2022-08-01T04:06:42;99299.84;;;12.94;100.00
21728;BME280;11026;50.560;17.852;2022-08-01T04:12:05;99302.88;;;13.18;100.00
21728;BME280;11026;50.560;17.852;2022-08-01T04:14:37;99301.00;;;13.20;100.00
21728;BME280;11026;50.560;17.852;2022-08-01T04:20:11;99307.38;;;13.47;100.00
21728;BME280;11026;50.560;17.852;2022-08-01T04:22:48;99303.94;;;13.31;100.00
21728;BME280;11026;50.560;17.852;2022-08-01T04:25:26;99312.28;;;13.39;100.00
21728;BME280;11026;50.560;17.852;2022-08-01T04:28:08;99304.91;;;13.44;100.00
21728;BME280;11026;50.560;17.852;2022-08-01T04:30:42;99301.91;;;13.50;100.00
21728;BME280;11026;50.560;17.852;2022-08-01T04:33:20;99296.19;;;13.57;100.00
21728;BME280;11026;50.560;17.852;2022-08-01T04:35:59;99304.03;;;13.74;100.00
21728;BME280;11026;50.560;17.852;2022-08-01T04:38:40;99302.69;;;13.95;100.00
21728;BME280;11026;50.560;17.852;2022-08-01T04:41:11;99304.41;;;14.11;100.00
21728;BME280;11026;50.560;17.852;2022-08-01T04:43:57;99304.50;;;14.38;100.00
21728;BME280;11026;50.560;17.852;2022-08-01T04:46:36;99305.81;;;14.59;100.00
21728;BME280;11026;50.560;17.852;2022-08-01T04:49:06;99303.97;;;14.74;100.00
21728;BME280;11026;50.560;17.852;2022-08-01T04:51:36;99301.25;;;14.88;100.00
21728;BME280;11026;50.560;17.852;2022-08-01T04:54:03;99299.91;;;14.95;100.00
21728;BME280;11026;50.560;17.852;2022-08-01T04:56:32;99305.00;;;15.13;100.00
21728;BME280;11026;50.560;17.852;2022-08-01T04:59:00;99306.16;;;15.09;100.00
21728;BME280;11026;50.560;17.852;2022-08-01T05:01:50;99312.22;;;15.11;100.00
21728;BME280;11026;50.560;17.852;2022-08-01T05:04:19;99305.19;;;15.10;100.00
21728;BME280;11026;50.560;17.852;2022-08-01T05:06:46;99311.31;;;15.24;100.00
21728;BME280;11026;50.560;17.852;2022-08-01T05:09:13;99314.66;;;15.41;100.00
21728;BME280;11026;50.560;17.852;2022-08-01T05:11:47;99309.25;;;15.55;100.00
21728;BME280;11026;50.560;17.852;2022-08-01T05:14:17;99309.41;;;15.66;100.00
21728;BME280;11026;50.560;17.852;2022-08-01T05:17:00;99301.00;;;15.85;100.00
21728;BME280;11026;50.560;17.852;2022-08-01T05:19:52;99308.78;;;15.88;100.00
21728;BME280;11026;50.560;17.852;2022-08-01T05:22:53;99315.06;;;15.87;100.00
21728;BME280;11026;50.560;17.852;2022-08-01T05:25:57;99311.53;;;15.74;100.00
21728;BME280;11026;50.560;17.852;2022-08-01T05:28:39;99304.72;;;15.95;100.00
21728;BME280;11026;50.560;17.852;2022-08-01T05:31:27;99304.09;;;16.05;100.00
21728;BME280;11026;50.560;17.852;2022-08-01T05:34:06;99306.75;;;16.05;100.00
21728;BME280;11026;50.560;17.852;2022-08-01T05:37:02;99296.50;;;16.24;100.00
21728;BME280;11026;50.560;17.852;2022-08-01T05:39:38;99301.44;;;16.54;100.00
21728;BME280;11026;50.560;17.852;2022-08-01T05:42:11;99291.56;;;16.80;100.00
21728;BME280;11026;50.560;17.852;2022-08-01T05:44:39;99286.44;;;17.01;100.00
21728;BME280;11026;50.560;17.852;2022-08-01T05:47:16;99303.16;;;17.16;99.91
21728;BME280;11026;50.560;17.852;2022-08-01T05:49:56;99298.88;;;17.13;98.64
21728;BME280;11026;50.560;17.852;2022-08-01T05:52:38;99300.38;;;17.53;97.80
21728;BME280;11026;50.560;17.852;2022-08-01T05:55:12;99304.78;;;17.65;95.57
21728;BME280;11026;50.560;17.852;2022-08-01T05:57:46;99301.09;;;17.79;93.33
21728;BME280;11026;50.560;17.852;2022-08-01T06:00:21;99308.25;;;17.89;94.00
21728;BME280;11026;50.560;17.852;2022-08-01T06:05:51;99296.88;;;18.10;88.40
21728;BME280;11026;50.560;17.852;2022-08-01T06:08:19;99304.41;;;18.27;86.89
21728;BME280;11026;50.560;17.852;2022-08-01T06:10:53;99302.72;;;18.37;86.13
21728;BME280;11026;50.560;17.852;2022-08-01T06:13:20;99303.19;;;18.42;86.40
21728;BME280;11026;50.560;17.852;2022-08-01T06:15:49;99308.28;;;18.57;85.08
21728;BME280;11026;50.560;17.852;2022-08-01T06:18:23;99307.81;;;18.52;85.83
21728;BME280;11026;50.560;17.852;2022-08-01T06:20:59;99313.41;;;18.49;85.35
21728;BME280;11026;50.560;17.852;2022-08-01T06:23:29;99314.88;;;18.75;86.37
21728;BME280;11026;50.560;17.852;2022-08-01T06:26:22;99314.94;;;18.96;85.62
21728;BME280;11026;50.560;17.852;2022-08-01T06:28:49;99318.53;;;18.85;85.25
21728;BME280;11026;50.560;17.852;2022-08-01T06:31:18;99313.66;;;18.79;85.61
21728;BME280;11026;50.560;17.852;2022-08-01T06:34:06;99317.78;;;18.83;85.77
21728;BME280;11026;50.560;17.852;2022-08-01T06:36:33;99316.31;;;18.79;86.19
21728;BME280;11026;50.560;17.852;2022-08-01T06:39:02;99319.69;;;18.92;86.22
21728;BME280;11026;50.560;17.852;2022-08-01T06:41:30;99322.38;;;18.92;85.82
21728;BME280;11026;50.560;17.852;2022-08-01T06:43:59;99324.22;;;18.92;85.63
21728;BME280;11026;50.560;17.852;2022-08-01T06:46:35;99326.53;;;18.97;84.65
21728;BME280;11026;50.560;17.852;2022-08-01T06:49:03;99326.34;;;18.77;84.90
21728;BME280;11026;50.560;17.852;2022-08-01T06:51:37;99326.16;;;19.01;84.38
21728;BME280;11026;50.560;17.852;2022-08-01T06:54:05;99334.09;;;18.91;85.22
21728;BME280;11026;50.560;17.852;2022-08-01T06:56:49;99328.22;;;18.98;84.76
21728;BME280;11026;50.560;17.852;2022-08-01T06:59:31;99329.25;;;18.85;83.71
21728;BME280;11026;50.560;17.852;2022-08-01T07:02:10;99325.56;;;18.98;83.61
21728;BME280;11026;50.560;17.852;2022-08-01T07:05:11;99332.69;;;19.08;84.21
21728;BME280;11026;50.560;17.852;2022-08-01T07:07:40;99332.13;;;19.05;84.77
21728;BME280;11026;50.560;17.852;2022-08-01T07:10:07;99328.22;;;18.98;85.38
21728;BME280;11026;50.560;17.852;2022-08-01T07:12:51;99337.69;;;19.13;85.16
21728;BME280;11026;50.560;17.852;2022-08-01T07:15:19;99328.84;;;19.33;83.99
21728;BME280;11026;50.560;17.852;2022-08-01T07:17:54;99334.47;;;19.30;82.35
21728;BME280;11026;50.560;17.852;2022-08-01T07:20:22;99339.63;;;19.22;84.82
21728;BME280;11026;50.560;17.852;2022-08-01T07:22:51;99335.66;;;19.37;83.99
21728;BME280;11026;50.560;17.852;2022-08-01T07:25:18;99342.69;;;19.50;82.96
21728;BME280;11026;50.560;17.852;2022-08-01T07:27:46;99340.78;;;19.40;82.72
21728;BME280;11026;50.560;17.852;2022-08-01T07:30:14;99340.25;;;19.47;82.84
21728;BME280;11026;50.560;17.852;2022-08-01T07:32:43;99332.94;;;19.49;84.00
21728;BME280;11026;50.560;17.852;2022-08-01T07:35:11;99336.38;;;19.39;84.46
21728;BME280;11026;50.560;17.852;2022-08-01T07:37:38;99338.00;;;19.52;84.07
21728;BME280;11026;50.560;17.852;2022-08-01T07:40:20;99330.50;;;19.46;85.34
21728;BME280;11026;50.560;17.852;2022-08-01T07:42:55;99335.09;;;19.55;84.53
21728;BME280;11026;50.560;17.852;2022-08-01T07:45:32;99325.91;;;19.69;83.61
21728;BME280;11026;50.560;17.852;2022-08-01T07:48:04;99319.75;;;19.78;86.26
21728;BME280;11026;50.560;17.852;2022-08-01T07:50:38;99320.28;;;19.93;87.32
21728;BME280;11026;50.560;17.852;2022-08-01T07:53:11;99312.09;;;19.94;86.35
21728;BME280;11026;50.560;17.852;2022-08-01T07:55:46;99309.28;;;19.96;85.89
21728;BME280;11026;50.560;17.852;2022-08-01T07:58:17;99305.16;;;20.22;86.59
21728;BME280;11026;50.560;17.852;2022-08-01T08:00:57;99314.53;;;20.28;83.58
21728;BME280;11026;50.560;17.852;2022-08-01T08:03:42;99304.38;;;20.31;85.11
21728;BME280;11026;50.560;17.852;2022-08-01T08:06:09;99309.19;;;20.37;84.14
21728;BME280;11026;50.560;17.852;2022-08-01T08:08:50;99302.28;;;20.45;84.61
21728;BME280;11026;50.560;17.852;2022-08-01T08:11:37;99317.53;;;20.65;82.39
21728;BME280;11026;50.560;17.852;2022-08-01T08:14:04;99329.94;;;20.56;83.05
21728;BME280;11026;50.560;17.852;2022-08-01T08:16:31;99343.19;;;20.48;82.11
21728;BME280;11026;50.560;17.852;2022-08-01T08:18:58;99348.44;;;20.50;82.78
21728;BME280;11026;50.560;17.852;2022-08-01T08:21:27;99355.59;;;20.39;83.03
21728;BME280;11026;50.560;17.852;2022-08-01T08:24:00;99351.44;;;20.56;82.85
21728;BME280;11026;50.560;17.852;2022-08-01T08:27:00;99353.41;;;20.54;81.81
21728;BME280;11026;50.560;17.852;2022-08-01T08:29:46;99350.22;;;20.70;83.54
21728;BME280;11026;50.560;17.852;2022-08-01T08:32:39;99360.00;;;20.71;80.87
21728;BME280;11026;50.560;17.852;2022-08-01T08:35:08;99356.84;;;20.66;82.00
21728;BME280;11026;50.560;17.852;2022-08-01T08:37:43;99356.06;;;20.85;81.14
21728;BME280;11026;50.560;17.852;2022-08-01T08:40:22;99358.06;;;20.83;79.42
21728;BME280;11026;50.560;17.852;2022-08-01T08:42:54;99356.06;;;20.85;80.79
21728;BME280;11026;50.560;17.852;2022-08-01T08:45:41;99362.44;;;20.94;81.36
21728;BME280;11026;50.560;17.852;2022-08-01T08:48:26;99362.19;;;20.97;79.41
21728;BME280;11026;50.560;17.852;2022-08-01T08:51:02;99351.78;;;20.82;80.49
21728;BME280;11026;50.560;17.852;2022-08-01T08:56:23;99360.38;;;21.07;80.82
21728;BME280;11026;50.560;17.852;2022-08-01T08:58:55;99364.19;;;21.14;80.29
21728;BME280;11026;50.560;17.852;2022-08-01T09:01:41;99356.72;;;21.27;79.27
21728;BME280;11026;50.560;17.852;2022-08-01T09:04:11;99355.06;;;21.36;79.12
21728;BME280;11026;50.560;17.852;2022-08-01T09:06:47;99364.66;;;21.29;80.11
21728;BME280;11026;50.560;17.852;2022-08-01T09:09:38;99370.06;;;21.48;78.79
21728;BME280;11026;50.560;17.852;2022-08-01T09:12:19;99369.22;;;21.48;77.11
21728;BME280;11026;50.560;17.852;2022-08-01T09:14:54;99378.59;;;21.82;76.93
21728;BME280;11026;50.560;17.852;2022-08-01T09:17:24;99375.31;;;22.18;76.47
21728;BME280;11026;50.560;17.852;2022-08-01T09:20:00;99368.75;;;22.20;75.66
21728;BME280;11026;50.560;17.852;2022-08-01T09:22:34;99378.25;;;22.05;76.41
21728;BME280;11026;50.560;17.852;2022-08-01T09:28:15;99379.03;;;22.44;74.83
21728;BME280;11026;50.560;17.852;2022-08-01T09:30:43;99370.75;;;22.65;75.61
21728;BME280;11026;50.560;17.852;2022-08-01T09:33:25;99371.16;;;22.70;74.99
21728;BME280;11026;50.560;17.852;2022-08-01T09:35:57;99373.88;;;22.61;75.07
21728;BME280;11026;50.560;17.852;2022-08-01T09:38:36;99377.06;;;22.46;76.17
21728;BME280;11026;50.560;17.852;2022-08-01T09:41:09;99375.78;;;22.41;74.69
21728;BME280;11026;50.560;17.852;2022-08-01T09:43:40;99376.22;;;22.46;75.57
21728;BME280;11026;50.560;17.852;2022-08-01T09:46:16;99375.16;;;22.19;77.28
21728;BME280;11026;50.560;17.852;2022-08-01T09:49:01;99381.09;;;22.13;76.42
21728;BME280;11026;50.560;17.852;2022-08-01T09:51:42;99381.09;;;22.23;76.73
21728;BME280;11026;50.560;17.852;2022-08-01T09:54:32;99384.16;;;22.47;76.68
21728;BME280;11026;50.560;17.852;2022-08-01T09:57:15;99377.72;;;22.58;74.81
21728;BME280;11026;50.560;17.852;2022-08-01T09:59:46;99377.50;;;22.79;75.00
21728;BME280;11026;50.560;17.852;2022-08-01T10:02:34;99378.88;;;22.83;74.35
21728;BME280;11026;50.560;17.852;2022-08-01T10:05:05;99374.75;;;22.89;75.06
21728;BME280;11026;50.560;17.852;2022-08-01T10:08:04;99375.97;;;23.04;74.17
21728;BME280;11026;50.560;17.852;2022-08-01T10:10:39;99365.59;;;23.09;71.50
21728;BME280;11026;50.560;17.852;2022-08-01T10:13:18;99355.81;;;23.44;72.50
21728;BME280;11026;50.560;17.852;2022-08-01T10:15:47;99360.53;;;23.77;70.25
21728;BME280;11026;50.560;17.852;2022-08-01T10:21:00;99357.94;;;24.38;68.65
21728;BME280;11026;50.560;17.852;2022-08-01T10:23:36;99357.44;;;24.68;68.26
21728;BME280;11026;50.560;17.852;2022-08-01T10:26:08;99353.69;;;24.95;68.27
21728;BME280;11026;50.560;17.852;2022-08-01T10:28:50;99344.03;;;25.01;67.80
21728;BME280;11026;50.560;17.852;2022-08-01T10:31:20;99352.03;;;24.68;68.05
21728;BME280;11026;50.560;17.852;2022-08-01T10:33:57;99356.44;;;24.69;67.41
21728;BME280;11026;50.560;17.852;2022-08-01T10:36:27;99348.44;;;25.02;66.03
21728;BME280;11026;50.560;17.852;2022-08-01T10:38:57;99344.34;;;25.65;65.77
21728;BME280;11026;50.560;17.852;2022-08-01T10:41:33;99347.94;;;26.14;63.82
21728;BME280;11026;50.560;17.852;2022-08-01T10:44:09;99341.81;;;26.12;60.76
21728;BME280;11026;50.560;17.852;2022-08-01T10:46:39;99348.25;;;25.70;60.82
21728;BME280;11026;50.560;17.852;2022-08-01T10:49:17;99345.34;;;25.39;62.36
21728;BME280;11026;50.560;17.852;2022-08-01T10:51:45;99350.78;;;25.72;61.21
21728;BME280;11026;50.560;17.852;2022-08-01T10:54:24;99349.63;;;25.58;62.22
21728;BME280;11026;50.560;17.852;2022-08-01T10:56:52;99350.25;;;25.27;62.78
21728;BME280;11026;50.560;17.852;2022-08-01T10:59:28;99347.34;;;25.21;62.49
21728;BME280;11026;50.560;17.852;2022-08-01T11:02:39;99341.44;;;25.34;62.10
21728;BME280;11026;50.560;17.852;2022-08-01T11:05:20;99334.34;;;25.49;62.99
21728;BME280;11026;50.560;17.852;2022-08-01T11:08:23;99346.50;;;25.20;63.75
21728;BME280;11026;50.560;17.852;2022-08-01T11:11:02;99342.00;;;25.70;61.67
21728;BME280;11026;50.560;17.852;2022-08-01T11:14:05;99342.53;;;26.06;59.76
21728;BME280;11026;50.560;17.852;2022-08-01T11:16:42;99341.69;;;26.78;58.59
21728;BME280;11026;50.560;17.852;2022-08-01T11:19:18;99344.28;;;27.33;57.24
21728;BME280;11026;50.560;17.852;2022-08-01T11:22:08;99332.59;;;27.79;54.82
21728;BME280;11026;50.560;17.852;2022-08-01T11:27:31;99335.69;;;27.67;55.77
21728;BME280;11026;50.560;17.852;2022-08-01T11:33:01;99332.06;;;26.59;57.92
21728;BME280;11026;50.560;17.852;2022-08-01T11:38:47;99334.00;;;26.89;57.23
21728;BME280;11026;50.560;17.852;2022-08-01T11:41:29;99327.25;;;27.16;55.90
21728;BME280;11026;50.560;17.852;2022-08-01T11:44:11;99332.09;;;27.52;56.62
21728;BME280;11026;50.560;17.852;2022-08-01T11:47:03;99327.69;;;27.97;54.07
21728;BME280;11026;50.560;17.852;2022-08-01T11:52:38;99319.19;;;28.74;51.77
21728;BME280;11026;50.560;17.852;2022-08-01T11:55:09;99312.69;;;29.05;51.06
21728;BME280;11026;50.560;17.852;2022-08-01T11:57:38;99323.81;;;29.25;51.54
21728;BME280;11026;50.560;17.852;2022-08-01T12:00:11;99316.84;;;29.01;50.74
21728;BME280;11026;50.560;17.852;2022-08-01T12:02:44;99316.97;;;29.50;50.35
21728;BME280;11026;50.560;17.852;2022-08-01T12:05:15;99315.19;;;29.85;49.96
21728;BME280;11026;50.560;17.852;2022-08-01T12:10:51;99312.53;;;29.92;49.43
21728;BME280;11026;50.560;17.852;2022-08-01T12:13:40;99311.75;;;29.77;48.43
21728;BME280;11026;50.560;17.852;2022-08-01T12:16:10;99310.44;;;29.08;49.93
21728;BME280;11026;50.560;17.852;2022-08-01T12:18:42;99315.69;;;28.95;50.71
21728;BME280;11026;50.560;17.852;2022-08-01T12:21:10;99316.25;;;29.05;51.12
21728;BME280;11026;50.560;17.852;2022-08-01T12:23:37;99306.59;;;28.88;50.01
21728;BME280;11026;50.560;17.852;2022-08-01T12:26:04;99311.59;;;28.99;50.32
21728;BME280;11026;50.560;17.852;2022-08-01T12:28:43;99312.00;;;28.52;51.25
21728;BME280;11026;50.560;17.852;2022-08-01T12:31:31;99308.06;;;28.39;51.25
21728;BME280;11026;50.560;17.852;2022-08-01T12:34:29;99314.31;;;28.70;51.42
21728;BME280;11026;50.560;17.852;2022-08-01T12:36:58;99317.25;;;29.19;50.00
21728;BME280;11026;50.560;17.852;2022-08-01T12:39:32;99305.13;;;29.22;49.14
21728;BME280;11026;50.560;17.852;2022-08-01T12:42:06;99305.94;;;28.27;52.02
21728;BME280;11026;50.560;17.852;2022-08-01T12:44:38;99303.75;;;28.45;53.24
21728;BME280;11026;50.560;17.852;2022-08-01T12:47:13;99300.13;;;29.04;50.31
21728;BME280;11026;50.560;17.852;2022-08-01T12:49:52;99306.03;;;29.29;49.61
21728;BME280;11026;50.560;17.852;2022-08-01T12:52:21;99307.59;;;29.16;47.55
21728;BME280;11026;50.560;17.852;2022-08-01T12:55:09;99311.69;;;28.61;50.14
21728;BME280;11026;50.560;17.852;2022-08-01T12:57:40;99299.53;;;29.08;49.07
21728;BME280;11026;50.560;17.852;2022-08-01T13:03:08;99290.78;;;29.13;49.40
21728;BME280;11026;50.560;17.852;2022-08-01T13:08:21;99295.06;;;29.58;49.16
21728;BME280;11026;50.560;17.852;2022-08-01T13:11:09;99297.69;;;29.73;47.70
21728;BME280;11026;50.560;17.852;2022-08-01T13:13:47;99305.84;;;29.52;50.15
21728;BME280;11026;50.560;17.852;2022-08-01T13:16:22;99292.38;;;29.44;49.43
21728;BME280;11026;50.560;17.852;2022-08-01T13:19:11;99303.16;;;28.64;50.87
21728;BME280;11026;50.560;17.852;2022-08-01T13:21:53;99302.19;;;28.87;49.60
21728;BME280;11026;50.560;17.852;2022-08-01T13:24:29;99309.16;;;28.15;52.22
21728;BME280;11026;50.560;17.852;2022-08-01T13:27:00;99305.72;;;27.84;51.88
21728;BME280;11026;50.560;17.852;2022-08-01T13:29:44;99303.53;;;27.79;53.93
21728;BME280;11026;50.560;17.852;2022-08-01T13:32:30;99307.25;;;27.40;55.01
21728;BME280;11026;50.560;17.852;2022-08-01T13:35:06;99303.00;;;27.38;52.00
21728;BME280;11026;50.560;17.852;2022-08-01T13:37:36;99305.53;;;27.08;54.60
21728;BME280;11026;50.560;17.852;2022-08-01T13:40:07;99308.78;;;27.04;55.65
21728;BME280;11026;50.560;17.852;2022-08-01T13:42:40;99298.19;;;27.48;55.48
21728;BME280;11026;50.560;17.852;2022-08-01T13:45:10;99305.97;;;28.12;52.90
21728;BME280;11026;50.560;17.852;2022-08-01T13:47:41;99304.13;;;27.66;54.92
21728;BME280;11026;50.560;17.852;2022-08-01T13:50:30;99314.47;;;27.25;56.32
21728;BME280;11026;50.560;17.852;2022-08-01T13:53:03;99302.78;;;27.25;57.01
21728;BME280;11026;50.560;17.852;2022-08-01T13:55:32;99308.00;;;27.49;55.68
21728;BME280;11026;50.560;17.852;2022-08-01T13:58:07;99306.00;;;26.89;58.68
21728;BME280;11026;50.560;17.852;2022-08-01T14:00:37;99307.38;;;26.37;60.78
21728;BME280;11026;50.560;17.852;2022-08-01T14:03:04;99316.09;;;26.00;61.53
21728;BME280;11026;50.560;17.852;2022-08-01T14:05:35;99311.72;;;25.91;63.34
21728;BME280;11026;50.560;17.852;2022-08-01T14:08:05;99307.28;;;25.49;63.77
21728;BME280;11026;50.560;17.852;2022-08-01T14:10:41;99309.97;;;25.57;64.53
21728;BME280;11026;50.560;17.852;2022-08-01T14:13:11;99329.91;;;25.15;62.19
21728;BME280;11026;50.560;17.852;2022-08-01T14:15:39;99323.69;;;24.81;63.38
21728;BME280;11026;50.560;17.852;2022-08-01T14:18:09;99322.91;;;24.96;65.45
21728;BME280;11026;50.560;17.852;2022-08-01T14:20:43;99324.25;;;25.00;64.28
21728;BME280;11026;50.560;17.852;2022-08-01T14:23:15;99315.41;;;24.82;65.29
21728;BME280;11026;50.560;17.852;2022-08-01T14:25:43;99326.69;;;24.69;66.89
21728;BME280;11026;50.560;17.852;2022-08-01T14:28:34;99328.19;;;24.38;68.18
21728;BME280;11026;50.560;17.852;2022-08-01T14:31:14;99328.09;;;24.39;69.14
21728;BME280;11026;50.560;17.852;2022-08-01T14:33:41;99321.00;;;24.46;68.17